sensor_id;sensor_type;location;lat;lon;timestamp;pressure;altitude;pressure_sealevel;temperature
71630;BMP280;59479;51.902;8.212;2023-02-25T00:01:06;99832.53;;;5.28
71630;BMP280;59479;51.902;8.212;2023-02-25T00:03:33;99830.03;;;5.29
71630;BMP280;59479;51.902;8.212;2023-02-25T00:06:00;99832.50;;;5.25
71630;BMP280;59479;51.902;8.212;2023-02-25T00:08:26;99830.06;;;5.32
71630;BMP280;59479;51.902;8.212;2023-02-25T00:11:02;99840.00;;;5.29
71630;BMP280;59479;51.902;8.212;2023-02-25T00:13:29;99841.66;;;5.29
71630;BMP280;59479;51.902;8.212;2023-02-25T00:15:55;99844.19;;;5.30
71630;BMP280;59479;51.902;8.212;2023-02-25T00:18:27;99846.59;;;5.24
71630;BMP280;59479;51.902;8.212;2023-02-25T00:20:52;99848.31;;;5.28
71630;BMP280;59479;51.902;8.212;2023-02-25T00:23:18;99838.38;;;5.34
71630;BMP280;59479;51.902;8.212;2023-02-25T00:25:43;99844.28;;;5.42
71630;BMP280;59479;51.902;8.212;2023-02-25T00:28:09;99850.91;;;5.40
71630;BMP280;59479;51.902;8.212;2023-02-25T00:30:37;99850.06;;;5.38
71630;BMP280;59479;51.902;8.212;2023-02-25T00:33:02;99838.38;;;5.31
71630;BMP280;59479;51.902;8.212;2023-02-25T00:35:29;99845.09;;;5.40
71630;BMP280;59479;51.902;8.212;2023-02-25T00:37:54;99845.94;;;5.40
71630;BMP280;59479;51.902;8.212;2023-02-25T00:40:20;99854.25;;;5.42
71630;BMP280;59479;51.902;8.212;2023-02-25T00:42:45;99850.19;;;5.53
71630;BMP280;59479;51.902;8.212;2023-02-25T00:45:10;99850.09;;;5.44
71630;BMP280;59479;51.902;8.212;2023-02-25T00:47:36;99850.91;;;5.40
71630;BMP280;59479;51.902;8.212;2023-02-25T00:50:04;99843.50;;;5.50
71630;BMP280;59479;51.902;8.212;2023-02-25T00:52:32;99840.16;;;5.47
71630;BMP280;59479;51.902;8.212;2023-02-25T00:54:57;99850.06;;;5.38
71630;BMP280;59479;51.902;8.212;2023-02-25T00:57:23;99847.66;;;5.50
71630;BMP280;59479;51.902;8.212;2023-02-25T00:59:49;99850.09;;;5.41
71630;BMP280;59479;51.902;8.212;2023-02-25T01:02:14;99849.25;;;5.42
71630;BMP280;59479;51.902;8.212;2023-02-25T01:04:40;99855.09;;;5.45
71630;BMP280;59479;51.902;8.212;2023-02-25T01:07:05;99855.06;;;5.38
71630;BMP280;59479;51.902;8.212;2023-02-25T01:09:31;99866.63;;;5.32
71630;BMP280;59479;51.902;8.212;2023-02-25T01:11:56;99858.44;;;5.46
71630;BMP280;59479;51.902;8.212;2023-02-25T01:14:24;99868.38;;;5.43
71630;BMP280;59479;51.902;8.212;2023-02-25T01:16:51;99856.72;;;5.42
71630;BMP280;59479;51.902;8.212;2023-02-25T01:19:19;99848.41;;;5.40
71630;BMP280;59479;51.902;8.212;2023-02-25T01:21:48;99851.78;;;5.46
71630;BMP280;59479;51.902;8.212;2023-02-25T01:24:19;99850.09;;;5.44
71630;BMP280;59479;51.902;8.212;2023-02-25T01:26:47;99847.59;;;5.40
71630;BMP280;59479;51.902;8.212;2023-02-25T01:29:15;99845.13;;;5.45
71630;BMP280;59479;51.902;8.212;2023-02-25T01:31:40;99848.41;;;5.40
71630;BMP280;59479;51.902;8.212;2023-02-25T01:34:07;99856.66;;;5.33
71630;BMP280;59479;51.902;8.212;2023-02-25T01:36:33;99860.81;;;5.31
71630;BMP280;59479;51.902;8.212;2023-02-25T01:39:00;99852.59;;;5.41
71630;BMP280;59479;51.902;8.212;2023-02-25T01:41:26;99849.34;;;5.51
71630;BMP280;59479;51.902;8.212;2023-02-25T01:46:51;99851.72;;;5.39
71630;BMP280;59479;51.902;8.212;2023-02-25T01:49:30;99851.69;;;5.33
71630;BMP280;59479;51.902;8.212;2023-02-25T01:52:22;99849.13;;;5.27
71630;BMP280;59479;51.902;8.212;2023-02-25T01:54:52;99859.06;;;5.26
71630;BMP280;59479;51.902;8.212;2023-02-25T01:57:20;99853.25;;;5.25
71630;BMP280;59479;51.902;8.212;2023-02-25T01:59:46;99852.41;;;5.22
71630;BMP280;59479;51.902;8.212;2023-02-25T02:02:16;99849.13;;;5.27
71630;BMP280;59479;51.902;8.212;2023-02-25T02:04:44;99858.19;;;5.21
71630;BMP280;59479;51.902;8.212;2023-02-25T02:07:14;99853.31;;;5.28
71630;BMP280;59479;51.902;8.212;2023-02-25T02:09:40;99863.19;;;5.19
71630;BMP280;59479;51.902;8.212;2023-02-25T02:12:21;99850.72;;;5.18
71630;BMP280;59479;51.902;8.212;2023-02-25T02:14:50;99858.31;;;5.30
71630;BMP280;59479;51.902;8.212;2023-02-25T02:17:37;99863.31;;;5.34
71630;BMP280;59479;51.902;8.212;2023-02-25T02:20:18;99858.31;;;5.30
71630;BMP280;59479;51.902;8.212;2023-02-25T02:33:22;99871.59;;;5.32
71630;BMP280;59479;51.902;8.212;2023-02-25T02:46:28;99871.66;;;5.39
71630;BMP280;59479;51.902;8.212;2023-02-25T02:51:55;99873.41;;;5.46
71630;BMP280;59479;51.902;8.212;2023-02-25T02:54:19;99872.44;;;5.34
71630;BMP280;59479;51.902;8.212;2023-02-25T02:56:47;99875.00;;;5.41
71630;BMP280;59479;51.902;8.212;2023-02-25T02:59:22;99875.03;;;5.45
71630;BMP280;59479;51.902;8.212;2023-02-25T03:01:52;99875.88;;;5.49
71630;BMP280;59479;51.902;8.212;2023-02-25T03:04:22;99880.97;;;5.61
71630;BMP280;59479;51.902;8.212;2023-02-25T03:06:51;99888.28;;;5.40
71630;BMP280;59479;51.902;8.212;2023-02-25T03:09:21;99893.31;;;5.46
71630;BMP280;59479;51.902;8.212;2023-02-25T03:11:47;99898.19;;;5.31
71630;BMP280;59479;51.902;8.212;2023-02-25T03:14:13;99891.66;;;5.46
71630;BMP280;59479;51.902;8.212;2023-02-25T03:19:50;99897.41;;;5.42
71630;BMP280;59479;51.902;8.212;2023-02-25T03:22:23;99908.19;;;5.39
71630;BMP280;59479;51.902;8.212;2023-02-25T03:25:09;99904.84;;;5.35
71630;BMP280;59479;51.902;8.212;2023-02-25T03:27:39;99894.97;;;5.47
71630;BMP280;59479;51.902;8.212;2023-02-25T03:30:14;99895.84;;;5.52
71630;BMP280;59479;51.902;8.212;2023-02-25T03:32:45;99894.94;;;5.41
71630;BMP280;59479;51.902;8.212;2023-02-25T03:35:12;99899.91;;;5.42
71630;BMP280;59479;51.902;8.212;2023-02-25T03:37:41;99909.81;;;5.35
71630;BMP280;59479;51.902;8.212;2023-02-25T03:40:10;99900.75;;;5.40
71630;BMP280;59479;51.902;8.212;2023-02-25T03:42:44;99897.38;;;5.37
71630;BMP280;59479;51.902;8.212;2023-02-25T03:45:12;99898.25;;;5.42
71630;BMP280;59479;51.902;8.212;2023-02-25T03:47:39;99907.41;;;5.44
71630;BMP280;59479;51.902;8.212;2023-02-25T03:52:33;99922.34;;;5.41
71630;BMP280;59479;51.902;8.212;2023-02-25T03:54:59;99915.84;;;5.58
71630;BMP280;59479;51.902;8.212;2023-02-25T03:57:34;99928.22;;;5.46
71630;BMP280;59479;51.902;8.212;2023-02-25T04:00:00;99932.34;;;5.45
71630;BMP280;59479;51.902;8.212;2023-02-25T04:02:29;99934.81;;;5.41
71630;BMP280;59479;51.902;8.212;2023-02-25T04:04:55;99929.78;;;5.38
71630;BMP280;59479;51.902;8.212;2023-02-25T04:07:21;99931.47;;;5.42
71630;BMP280;59479;51.902;8.212;2023-02-25T04:09:47;99936.44;;;5.36
71630;BMP280;59479;51.902;8.212;2023-02-25T04:12:12;99938.91;;;5.35
71630;BMP280;59479;51.902;8.212;2023-02-25T04:14:37;99943.06;;;5.39
71630;BMP280;59479;51.902;8.212;2023-02-25T04:17:03;99947.28;;;5.41
71630;BMP280;59479;51.902;8.212;2023-02-25T04:19:30;99961.44;;;5.48
71630;BMP280;59479;51.902;8.212;2023-02-25T04:21:55;99961.44;;;5.48
71630;BMP280;59479;51.902;8.212;2023-02-25T04:24:21;99959.81;;;5.50
71630;BMP280;59479;51.902;8.212;2023-02-25T04:26:46;99961.38;;;5.42
71630;BMP280;59479;51.902;8.212;2023-02-25T04:29:11;99956.50;;;5.51
71630;BMP280;59479;51.902;8.212;2023-02-25T04:31:37;99957.16;;;5.35
71630;BMP280;59479;51.902;8.212;2023-02-25T04:34:02;99953.00;;;5.36
71630;BMP280;59479;51.902;8.212;2023-02-25T04:36:31;99948.06;;;5.39
71630;BMP280;59479;51.902;8.212;2023-02-25T04:38:58;99958.88;;;5.41
71630;BMP280;59479;51.902;8.212;2023-02-25T04:41:29;99966.44;;;5.48
71630;BMP280;59479;51.902;8.212;2023-02-25T04:43:55;99963.88;;;5.42
71630;BMP280;59479;51.902;8.212;2023-02-25T04:46:20;99964.66;;;5.37
71630;BMP280;59479;51.902;8.212;2023-02-25T04:48:45;99965.50;;;5.39
71630;BMP280;59479;51.902;8.212;2023-02-25T04:51:11;99968.81;;;5.39
71630;BMP280;59479;51.902;8.212;2023-02-25T04:53:37;99974.69;;;5.41
71630;BMP280;59479;51.902;8.212;2023-02-25T04:56:07;99982.09;;;5.37
71630;BMP280;59479;51.902;8.212;2023-02-25T04:58:33;99979.66;;;5.44
71630;BMP280;59479;51.902;8.212;2023-02-25T05:01:00;99971.31;;;5.41
71630;BMP280;59479;51.902;8.212;2023-02-25T05:03:26;99957.88;;;5.25
71630;BMP280;59479;51.902;8.212;2023-02-25T05:05:52;99961.31;;;5.33
71630;BMP280;59479;51.902;8.212;2023-02-25T05:08:17;99966.34;;;5.38
71630;BMP280;59479;51.902;8.212;2023-02-25T05:10:43;99957.25;;;5.44
71630;BMP280;59479;51.902;8.212;2023-02-25T05:13:08;99955.53;;;5.39
71630;BMP280;59479;51.902;8.212;2023-02-25T05:15:34;99954.66;;;5.35
71630;BMP280;59479;51.902;8.212;2023-02-25T05:17:59;99961.25;;;5.30
71630;BMP280;59479;51.902;8.212;2023-02-25T05:20:24;99963.78;;;5.32
71630;BMP280;59479;51.902;8.212;2023-02-25T05:22:50;99972.97;;;5.37
71630;BMP280;59479;51.902;8.212;2023-02-25T05:25:15;99958.66;;;5.20
71630;BMP280;59479;51.902;8.212;2023-02-25T05:27:41;99963.75;;;5.30
71630;BMP280;59479;51.902;8.212;2023-02-25T05:30:07;99966.28;;;5.33
71630;BMP280;59479;51.902;8.212;2023-02-25T05:32:32;99967.94;;;5.31
71630;BMP280;59479;51.902;8.212;2023-02-25T05:34:58;99965.31;;;5.21
71630;BMP280;59479;51.902;8.212;2023-02-25T05:37:23;99972.84;;;5.25
71630;BMP280;59479;51.902;8.212;2023-02-25T05:39:48;99967.84;;;5.24
71630;BMP280;59479;51.902;8.212;2023-02-25T05:42:14;99966.13;;;5.18
71630;BMP280;59479;51.902;8.212;2023-02-25T05:44:39;99982.63;;;5.10
71630;BMP280;59479;51.902;8.212;2023-02-25T05:47:04;99972.75;;;5.16
71630;BMP280;59479;51.902;8.212;2023-02-25T05:49:32;99978.63;;;5.26
71630;BMP280;59479;51.902;8.212;2023-02-25T05:51:57;99982.00;;;5.26
71630;BMP280;59479;51.902;8.212;2023-02-25T05:54:23;99976.09;;;5.18
71630;BMP280;59479;51.902;8.212;2023-02-25T05:56:52;99976.13;;;5.24
71630;BMP280;59479;51.902;8.212;2023-02-25T05:59:17;99981.28;;;5.39
71630;BMP280;59479;51.902;8.212;2023-02-25T06:01:43;99986.22;;;5.33
71630;BMP280;59479;51.902;8.212;2023-02-25T06:04:08;99987.91;;;5.37
71630;BMP280;59479;51.902;8.212;2023-02-25T06:06:34;99985.38;;;5.33
71630;BMP280;59479;51.902;8.212;2023-02-25T06:08:59;99982.13;;;5.38
71630;BMP280;59479;51.902;8.212;2023-02-25T06:11:29;99986.22;;;5.33
71630;BMP280;59479;51.902;8.212;2023-02-25T06:13:56;99999.53;;;5.35
71630;BMP280;59479;51.902;8.212;2023-02-25T06:16:22;100000.41;;;5.42
71630;BMP280;59479;51.902;8.212;2023-02-25T06:18:50;99993.78;;;5.42
71630;BMP280;59479;51.902;8.212;2023-02-25T06:21:16;100004.59;;;5.44
71630;BMP280;59479;51.902;8.212;2023-02-25T06:23:42;100004.38;;;5.23
71630;BMP280;59479;51.902;8.212;2023-02-25T06:26:10;100004.47;;;5.34
71630;BMP280;59479;51.902;8.212;2023-02-25T06:28:36;100012.84;;;5.39
71630;BMP280;59479;51.902;8.212;2023-02-25T06:31:06;100004.41;;;5.29
71630;BMP280;59479;51.902;8.212;2023-02-25T06:33:31;100015.97;;;5.21
71630;BMP280;59479;51.902;8.212;2023-02-25T06:35:57;100026.84;;;5.28
71630;BMP280;59479;51.902;8.212;2023-02-25T06:38:23;100027.59;;;5.19
71630;BMP280;59479;51.902;8.212;2023-02-25T06:40:49;100034.31;;;5.26
71630;BMP280;59479;51.902;8.212;2023-02-25T06:43:18;100035.97;;;5.27
71630;BMP280;59479;51.902;8.212;2023-02-25T06:45:43;100036.63;;;5.13
71630;BMP280;59479;51.902;8.212;2023-02-25T06:48:09;100038.25;;;5.12
71630;BMP280;59479;51.902;8.212;2023-02-25T06:50:37;100040.03;;;5.18
71630;BMP280;59479;51.902;8.212;2023-02-25T06:53:02;100046.56;;;5.10
71630;BMP280;59479;51.902;8.212;2023-02-25T06:55:28;100049.09;;;5.14
71630;BMP280;59479;51.902;8.212;2023-02-25T06:57:53;100038.34;;;5.18
71630;BMP280;59479;51.902;8.212;2023-02-25T07:00:21;100049.97;;;5.18
71630;BMP280;59479;51.902;8.212;2023-02-25T07:02:47;100049.25;;;5.26
71630;BMP280;59479;51.902;8.212;2023-02-25T07:05:12;100054.22;;;5.26
71630;BMP280;59479;51.902;8.212;2023-02-25T07:07:37;100055.97;;;5.33
71630;BMP280;59479;51.902;8.212;2023-02-25T07:10:03;100057.66;;;5.36
71630;BMP280;59479;51.902;8.212;2023-02-25T07:12:29;100064.28;;;5.34
71630;BMP280;59479;51.902;8.212;2023-02-25T07:14:56;100062.66;;;5.37
71630;BMP280;59479;51.902;8.212;2023-02-25T07:17:21;100071.78;;;5.35
71630;BMP280;59479;51.902;8.212;2023-02-25T07:19:47;100071.06;;;5.45
71630;BMP280;59479;51.902;8.212;2023-02-25T07:22:14;100092.66;;;5.47
71630;BMP280;59479;51.902;8.212;2023-02-25T07:24:41;100081.03;;;5.45
71630;BMP280;59479;51.902;8.212;2023-02-25T07:27:06;100086.06;;;5.48
71630;BMP280;59479;51.902;8.212;2023-02-25T07:29:32;100099.25;;;5.41
71630;BMP280;59479;51.902;8.212;2023-02-25T07:31:58;100100.97;;;5.45
71630;BMP280;59479;51.902;8.212;2023-02-25T07:34:24;100099.28;;;5.44
71630;BMP280;59479;51.902;8.212;2023-02-25T07:36:50;100101.00;;;5.48
71630;BMP280;59479;51.902;8.212;2023-02-25T07:39:15;100107.69;;;5.52
71630;BMP280;59479;51.902;8.212;2023-02-25T07:41:41;100101.03;;;5.51
71630;BMP280;59479;51.902;8.212;2023-02-25T07:44:06;100109.38;;;5.53
71630;BMP280;59479;51.902;8.212;2023-02-25T07:46:34;100115.97;;;5.48
71630;BMP280;59479;51.902;8.212;2023-02-25T07:49:00;100116.75;;;5.45
71630;BMP280;59479;51.902;8.212;2023-02-25T07:51:26;100117.59;;;5.46
71630;BMP280;59479;51.902;8.212;2023-02-25T07:53:55;100115.91;;;5.45
71630;BMP280;59479;51.902;8.212;2023-02-25T07:56:23;100123.38;;;5.43
71630;BMP280;59479;51.902;8.212;2023-02-25T07:58:48;100120.03;;;5.42
71630;BMP280;59479;51.902;8.212;2023-02-25T08:01:19;100116.81;;;5.50
71630;BMP280;59479;51.902;8.212;2023-02-25T08:03:47;100120.19;;;5.55
71630;BMP280;59479;51.902;8.212;2023-02-25T08:06:13;100125.97;;;5.54
71630;BMP280;59479;51.902;8.212;2023-02-25T08:08:38;100124.41;;;5.62
71630;BMP280;59479;51.902;8.212;2023-02-25T08:11:09;100122.69;;;5.56
71630;BMP280;59479;51.902;8.212;2023-02-25T08:13:36;100124.41;;;5.62
71630;BMP280;59479;51.902;8.212;2023-02-25T08:16:06;100131.91;;;5.62
71630;BMP280;59479;51.902;8.212;2023-02-25T08:18:31;100127.75;;;5.64
71630;BMP280;59479;51.902;8.212;2023-02-25T08:20:57;100140.19;;;5.59
71630;BMP280;59479;51.902;8.212;2023-02-25T08:23:25;100150.06;;;5.53
71630;BMP280;59479;51.902;8.212;2023-02-25T08:25:52;100155.88;;;5.51
71630;BMP280;59479;51.902;8.212;2023-02-25T08:28:20;100145.16;;;5.58
71630;BMP280;59479;51.902;8.212;2023-02-25T08:30:47;100151.72;;;5.51
71630;BMP280;59479;51.902;8.212;2023-02-25T08:33:12;100146.88;;;5.63
71630;BMP280;59479;51.902;8.212;2023-02-25T08:35:38;100144.25;;;5.53
71630;BMP280;59479;51.902;8.212;2023-02-25T08:38:03;100159.25;;;5.54
71630;BMP280;59479;51.902;8.212;2023-02-25T08:40:29;100153.69;;;5.73
71630;BMP280;59479;51.902;8.212;2023-02-25T08:42:56;100154.34;;;5.62
71630;BMP280;59479;51.902;8.212;2023-02-25T08:45:21;100148.63;;;5.70
71630;BMP280;59479;51.902;8.212;2023-02-25T08:47:46;100156.06;;;5.69
71630;BMP280;59479;51.902;8.212;2023-02-25T08:50:12;100157.81;;;5.73
71630;BMP280;59479;51.902;8.212;2023-02-25T08:52:37;100154.44;;;5.71
71630;BMP280;59479;51.902;8.212;2023-02-25T08:55:03;100154.59;;;5.80
71630;BMP280;59479;51.902;8.212;2023-02-25T08:57:29;100151.38;;;5.92
71630;BMP280;59479;51.902;8.212;2023-02-25T08:59:55;100150.50;;;5.87
71630;BMP280;59479;51.902;8.212;2023-02-25T09:02:20;100149.66;;;5.83
71630;BMP280;59479;51.902;8.212;2023-02-25T09:04:46;100152.88;;;5.76
71630;BMP280;59479;51.902;8.212;2023-02-25T09:07:11;100164.31;;;5.62
71630;BMP280;59479;51.902;8.212;2023-02-25T09:09:41;100164.41;;;5.68
71630;BMP280;59479;51.902;8.212;2023-02-25T09:12:07;100162.00;;;5.75
71630;BMP280;59479;51.902;8.212;2023-02-25T09:14:33;100166.25;;;5.84
71630;BMP280;59479;51.902;8.212;2023-02-25T09:17:01;100184.25;;;5.63
71630;BMP280;59479;51.902;8.212;2023-02-25T09:19:26;100180.06;;;5.61
71630;BMP280;59479;51.902;8.212;2023-02-25T09:21:52;100184.34;;;5.68
71630;BMP280;59479;51.902;8.212;2023-02-25T09:24:17;100184.56;;;5.83
71630;BMP280;59479;51.902;8.212;2023-02-25T09:26:43;100179.53;;;5.80
71630;BMP280;59479;51.902;8.212;2023-02-25T09:29:08;100185.34;;;5.80
71630;BMP280;59479;51.902;8.212;2023-02-25T09:31:34;100191.25;;;5.88
71630;BMP280;59479;51.902;8.212;2023-02-25T09:34:03;100185.50;;;5.95
71630;BMP280;59479;51.902;8.212;2023-02-25T09:36:32;100197.19;;;5.96
71630;BMP280;59479;51.902;8.212;2023-02-25T09:38:58;100197.13;;;5.93
71630;BMP280;59479;51.902;8.212;2023-02-25T09:41:32;100194.75;;;6.03
71630;BMP280;59479;51.902;8.212;2023-02-25T09:44:14;100190.47;;;5.93
71630;BMP280;59479;51.902;8.212;2023-02-25T09:47:03;100199.03;;;6.13
71630;BMP280;59479;51.902;8.212;2023-02-25T09:49:43;100198.03;;;5.98
71630;BMP280;59479;51.902;8.212;2023-02-25T09:52:17;100222.78;;;5.83
71630;BMP280;59479;51.902;8.212;2023-02-25T09:54:48;100213.56;;;5.79
71630;BMP280;59479;51.902;8.212;2023-02-25T09:57:18;100216.84;;;5.75
71630;BMP280;59479;51.902;8.212;2023-02-25T09:59:48;100235.22;;;5.82
71630;BMP280;59479;51.902;8.212;2023-02-25T10:02:24;100226.97;;;5.87
71630;BMP280;59479;51.902;8.212;2023-02-25T10:08:00;100246.16;;;5.89
71630;BMP280;59479;51.902;8.212;2023-02-25T10:19:41;100265.13;;;5.80
71630;BMP280;59479;51.902;8.212;2023-02-25T10:22:34;100263.28;;;5.70
71630;BMP280;59479;51.902;8.212;2023-02-25T10:25:13;100279.88;;;5.67
71630;BMP280;59479;51.902;8.212;2023-02-25T10:27:59;100279.81;;;5.64
71630;BMP280;59479;51.902;8.212;2023-02-25T10:30:53;100280.78;;;5.72
71630;BMP280;59479;51.902;8.212;2023-02-25T10:33:26;100270.88;;;5.75
71630;BMP280;59479;51.902;8.212;2023-02-25T10:35:56;100269.50;;;5.94
71630;BMP280;59479;51.902;8.212;2023-02-25T10:38:24;100279.41;;;5.90
71630;BMP280;59479;51.902;8.212;2023-02-25T10:40:52;100270.94;;;5.81
71630;BMP280;59479;51.902;8.212;2023-02-25T10:43:22;100276.84;;;5.87
71630;BMP280;59479;51.902;8.212;2023-02-25T10:45:59;100290.91;;;5.82
71630;BMP280;59479;51.902;8.212;2023-02-25T10:48:25;100289.94;;;5.73
71630;BMP280;59479;51.902;8.212;2023-02-25T10:53:38;100301.53;;;5.72
71630;BMP280;59479;51.902;8.212;2023-02-25T10:56:05;100302.47;;;5.76
71630;BMP280;59479;51.902;8.212;2023-02-25T11:01:09;100315.56;;;5.66
71630;BMP280;59479;51.902;8.212;2023-02-25T11:06:16;100314.53;;;5.52
71630;BMP280;59479;51.902;8.212;2023-02-25T11:08:42;100316.25;;;5.53
71630;BMP280;59479;51.902;8.212;2023-02-25T11:16:34;100324.47;;;5.49
71630;BMP280;59479;51.902;8.212;2023-02-25T11:19:02;100326.22;;;5.54
71630;BMP280;59479;51.902;8.212;2023-02-25T11:21:35;100323.00;;;5.61
71630;BMP280;59479;51.902;8.212;2023-02-25T11:24:09;100322.94;;;5.57
71630;BMP280;59479;51.902;8.212;2023-02-25T11:26:36;100329.63;;;5.59
71630;BMP280;59479;51.902;8.212;2023-02-25T11:29:09;100333.81;;;5.62
71630;BMP280;59479;51.902;8.212;2023-02-25T11:31:38;100330.25;;;5.46
71630;BMP280;59479;51.902;8.212;2023-02-25T11:34:20;100336.34;;;5.65
71630;BMP280;59479;51.902;8.212;2023-02-25T11:36:45;100345.66;;;5.73
71630;BMP280;59479;51.902;8.212;2023-02-25T11:39:25;100338.06;;;5.69
71630;BMP280;59479;51.902;8.212;2023-02-25T11:41:54;100338.19;;;5.75
71630;BMP280;59479;51.902;8.212;2023-02-25T11:44:42;100354.16;;;5.87
71630;BMP280;59479;51.902;8.212;2023-02-25T11:58:43;100362.53;;;5.90
71630;BMP280;59479;51.902;8.212;2023-02-25T12:01:44;100353.34;;;5.86
71630;BMP280;59479;51.902;8.212;2023-02-25T12:29:32;100372.50;;;5.90
71630;BMP280;59479;51.902;8.212;2023-02-25T12:40:49;100384.13;;;5.88
71630;BMP280;59479;51.902;8.212;2023-02-25T12:48:41;100384.63;;;6.26
71630;BMP280;59479;51.902;8.212;2023-02-25T12:51:22;100391.16;;;6.15
71630;BMP280;59479;51.902;8.212;2023-02-25T12:54:31;100393.03;;;6.30
71630;BMP280;59479;51.902;8.212;2023-02-25T13:03:00;100402.84;;;6.19
71630;BMP280;59479;51.902;8.212;2023-02-25T13:10:44;100404.63;;;6.27
71630;BMP280;59479;51.902;8.212;2023-02-25T13:18:51;100430.47;;;6.30
71630;BMP280;59479;51.902;8.212;2023-02-25T13:21:26;100432.03;;;6.26
71630;BMP280;59479;51.902;8.212;2023-02-25T13:26:54;100447.38;;;6.51
71630;BMP280;59479;51.902;8.212;2023-02-25T13:41:17;100457.88;;;6.29
71630;BMP280;59479;51.902;8.212;2023-02-25T13:47:31;100452.19;;;6.36
71630;BMP280;59479;51.902;8.212;2023-02-25T13:50:52;100457.25;;;6.42
71630;BMP280;59479;51.902;8.212;2023-02-25T13:59:27;100480.47;;;6.36
71630;BMP280;59479;51.902;8.212;2023-02-25T14:08:12;100470.25;;;6.20
71630;BMP280;59479;51.902;8.212;2023-02-25T14:11:23;100468.47;;;6.13
71630;BMP280;59479;51.902;8.212;2023-02-25T14:19:46;100482.63;;;6.16
71630;BMP280;59479;51.902;8.212;2023-02-25T14:22:18;100476.00;;;6.16
71630;BMP280;59479;51.902;8.212;2023-02-25T14:28:00;100491.06;;;6.22
71630;BMP280;59479;51.902;8.212;2023-02-25T14:42:25;100516.63;;;6.08
71630;BMP280;59479;51.902;8.212;2023-02-25T14:47:41;100520.78;;;6.09
71630;BMP280;59479;51.902;8.212;2023-02-25T14:50:28;100537.56;;;6.17
71630;BMP280;59479;51.902;8.212;2023-02-25T14:59:01;100543.19;;;6.06
71630;BMP280;59479;51.902;8.212;2023-02-25T15:01:42;100535.88;;;6.15
71630;BMP280;59479;51.902;8.212;2023-02-25T15:04:33;100536.59;;;6.08
71630;BMP280;59479;51.902;8.212;2023-02-25T15:12:46;100552.84;;;5.86
71630;BMP280;59479;51.902;8.212;2023-02-25T15:20:37;100556.06;;;5.80
71630;BMP280;59479;51.902;8.212;2023-02-25T15:23:13;100563.59;;;5.83
71630;BMP280;59479;51.902;8.212;2023-02-25T15:25:42;100570.25;;;5.84
71630;BMP280;59479;51.902;8.212;2023-02-25T15:28:44;100571.06;;;5.84
71630;BMP280;59479;51.902;8.212;2023-02-25T15:33:54;100581.34;;;6.00
71630;BMP280;59479;51.902;8.212;2023-02-25T15:36:26;100583.78;;;5.96
71630;BMP280;59479;51.902;8.212;2023-02-25T15:39:03;100588.78;;;5.96
71630;BMP280;59479;51.902;8.212;2023-02-25T15:41:38;100586.09;;;5.87
71630;BMP280;59479;51.902;8.212;2023-02-25T15:49:32;100610.97;;;5.83
71630;BMP280;59479;51.902;8.212;2023-02-25T15:52:00;100611.00;;;5.85
71630;BMP280;59479;51.902;8.212;2023-02-25T15:56:59;100626.25;;;5.58
71630;BMP280;59479;51.902;8.212;2023-02-25T15:59:45;100633.69;;;5.56
71630;BMP280;59479;51.902;8.212;2023-02-25T16:04:54;100639.16;;;5.41
71630;BMP280;59479;51.902;8.212;2023-02-25T16:07:22;100634.94;;;5.37
71630;BMP280;59479;51.902;8.212;2023-02-25T16:09:57;100642.69;;;5.50
71630;BMP280;59479;51.902;8.212;2023-02-25T16:12:24;100646.81;;;5.48
71630;BMP280;59479;51.902;8.212;2023-02-25T16:14:51;100649.19;;;5.43
71630;BMP280;59479;51.902;8.212;2023-02-25T16:17:21;100649.16;;;5.42
71630;BMP280;59479;51.902;8.212;2023-02-25T16:19:55;100657.63;;;5.48
71630;BMP280;59479;51.902;8.212;2023-02-25T16:22:25;100661.00;;;5.52
71630;BMP280;59479;51.902;8.212;2023-02-25T16:24:56;100664.94;;;5.41
71630;BMP280;59479;51.902;8.212;2023-02-25T16:30:22;100685.72;;;5.42
71630;BMP280;59479;51.902;8.212;2023-02-25T16:33:31;100693.06;;;5.36
71630;BMP280;59479;51.902;8.212;2023-02-25T16:36:09;100695.16;;;5.18
71630;BMP280;59479;51.902;8.212;2023-02-25T16:38:55;100693.31;;;5.09
71630;BMP280;59479;51.902;8.212;2023-02-25T16:41:21;100693.50;;;5.18
71630;BMP280;59479;51.902;8.212;2023-02-25T16:43:47;100705.84;;;5.14
71630;BMP280;59479;51.902;8.212;2023-02-25T16:46:20;100706.78;;;5.19
71630;BMP280;59479;51.902;8.212;2023-02-25T16:49:00;100712.34;;;5.07
71630;BMP280;59479;51.902;8.212;2023-02-25T16:51:38;100727.09;;;4.99
71630;BMP280;59479;51.902;8.212;2023-02-25T16:54:12;100728.56;;;4.92
71630;BMP280;59479;51.902;8.212;2023-02-25T16:56:39;100730.38;;;4.98
71630;BMP280;59479;51.902;8.212;2023-02-25T17:01:36;100745.50;;;5.05
71630;BMP280;59479;51.902;8.212;2023-02-25T17:04:11;100745.34;;;4.99
71630;BMP280;59479;51.902;8.212;2023-02-25T17:06:38;100750.94;;;4.91
71630;BMP280;59479;51.902;8.212;2023-02-25T17:09:03;100751.09;;;4.97
71630;BMP280;59479;51.902;8.212;2023-02-25T17:11:29;100759.97;;;4.86
71630;BMP280;59479;51.902;8.212;2023-02-25T17:13:57;100759.09;;;4.84
71630;BMP280;59479;51.902;8.212;2023-02-25T17:16:33;100758.59;;;4.97
71630;BMP280;59479;51.902;8.212;2023-02-25T17:19:02;100761.00;;;4.94
71630;BMP280;59479;51.902;8.212;2023-02-25T17:21:33;100764.44;;;4.99
71630;BMP280;59479;51.902;8.212;2023-02-25T17:24:00;100774.84;;;4.84
71630;BMP280;59479;51.902;8.212;2023-02-25T17:26:27;100774.69;;;4.77
71630;BMP280;59479;51.902;8.212;2023-02-25T17:28:55;100770.56;;;4.79
71630;BMP280;59479;51.902;8.212;2023-02-25T17:31:24;100776.22;;;4.72
71630;BMP280;59479;51.902;8.212;2023-02-25T17:34:01;100784.63;;;4.77
71630;BMP280;59479;51.902;8.212;2023-02-25T17:36:29;100777.66;;;4.64
71630;BMP280;59479;51.902;8.212;2023-02-25T17:38:58;100786.28;;;4.76
71630;BMP280;59479;51.902;8.212;2023-02-25T17:41:25;100787.34;;;4.86
71630;BMP280;59479;51.902;8.212;2023-02-25T17:43:52;100793.94;;;4.84
71630;BMP280;59479;51.902;8.212;2023-02-25T17:46:31;100790.66;;;4.85
71630;BMP280;59479;51.902;8.212;2023-02-25T17:49:16;100793.50;;;4.67
71630;BMP280;59479;51.902;8.212;2023-02-25T17:51:42;100788.69;;;4.73
71630;BMP280;59479;51.902;8.212;2023-02-25T17:54:14;100793.97;;;4.85
71630;BMP280;59479;51.902;8.212;2023-02-25T17:56:40;100792.28;;;4.83
71630;BMP280;59479;51.902;8.212;2023-02-25T17:59:35;100790.75;;;4.88
71630;BMP280;59479;51.902;8.212;2023-02-25T18:07:41;100794.41;;;4.69
71630;BMP280;59479;51.902;8.212;2023-02-25T18:12:57;100795.69;;;4.86